Utility, Louisiana
Current Conditions -  °F | °C
As of 9:53 AM on Sunday 23 Nov 2014 (Local Time) from KESF Reporting Station
Overcast Overcast  
Wind Chill: 64°   Ceiling: 2300
Heat Index: 64°   Visibility: 10mi
Dew Point: 59°   Wind: 17mph
Humidity: 84%   Direction: 230°SW
Pressure: 29.61"   Gusts: 29mph
Location:  31.5028°N, 91.9028°W
Report Text: KESF 231553Z AUTO 23015G25KT 10SM FEW011 BKN023 OVC031 18/15 A2961 RMK AO2 RAB1458E45 SLP024 P0002 T01780150
Loading
Personal Weather Stations






























Interactive Weather Map New forecast layout! Learn more

10-Day Weather Forecast

Advertisements
Track Severe Weather on mobile